createdAt,value
2018-10-12T00:00:23.065Z,35.40
2018-10-12T00:02:54.319Z,33.60
2018-10-12T00:05:21.803Z,39.40
2018-10-12T00:07:49.274Z,40.47
2018-10-12T00:10:16.779Z,37.13
2018-10-12T00:12:44.323Z,36.33
2018-10-12T00:15:11.840Z,32.07
2018-10-12T00:17:39.276Z,32.83
2018-10-12T00:20:06.952Z,40.23
2018-10-12T00:22:34.577Z,35.10
2018-10-12T00:25:02.043Z,37.13
2018-10-12T00:27:29.627Z,36.80
2018-10-12T00:29:57.097Z,36.30
2018-10-12T00:32:24.653Z,37.67
2018-10-12T00:34:52.081Z,30.57
2018-10-12T00:37:19.547Z,28.37
2018-10-12T00:39:47.007Z,32.50
2018-10-12T00:42:14.486Z,33.27
2018-10-12T00:44:41.915Z,31.20
2018-10-12T00:47:09.393Z,34.17
2018-10-12T00:49:36.900Z,32.43
2018-10-12T00:52:04.403Z,35.40
2018-10-12T00:54:31.887Z,28.53
2018-10-12T00:56:59.452Z,28.67
2018-10-12T00:59:26.976Z,32.03
2018-10-12T01:01:54.486Z,34.60
2018-10-12T01:04:21.942Z,30.13
2018-10-12T01:06:49.516Z,31.77
2018-10-12T01:09:16.930Z,31.57
2018-10-12T01:11:44.606Z,33.23
2018-10-12T01:14:12.120Z,30.73
2018-10-12T01:16:39.587Z,26.80
2018-10-12T01:19:07.160Z,24.77
2018-10-12T01:21:34.778Z,24.77
2018-10-12T01:24:02.343Z,27.50
2018-10-12T01:26:29.866Z,27.60
2018-10-12T01:28:57.840Z,24.60
2018-10-12T01:31:26.413Z,27.57
2018-10-12T01:33:54.033Z,26.23
2018-10-12T01:36:21.552Z,27.83
2018-10-12T01:38:49.062Z,23.77
2018-10-12T01:41:16.541Z,30.30
2018-10-12T01:43:44.238Z,25.20
2018-10-12T01:46:11.704Z,29.00
2018-10-12T01:48:39.347Z,27.23
2018-10-12T01:51:06.951Z,30.07
2018-10-12T01:53:34.552Z,25.50
2018-10-12T01:56:03.771Z,27.47
2018-10-12T01:58:31.994Z,30.17
2018-10-12T02:01:00.184Z,29.13
2018-10-12T02:03:27.690Z,26.70
2018-10-12T02:05:55.279Z,29.43
2018-10-12T02:08:22.770Z,30.00
2018-10-12T02:10:50.351Z,33.47
2018-10-12T02:13:17.887Z,37.10
2018-10-12T02:15:45.378Z,41.37
2018-10-12T02:18:12.880Z,49.80
2018-10-12T02:20:40.459Z,42.57
2018-10-12T02:23:07.950Z,38.07
2018-10-12T02:25:35.538Z,35.27
2018-10-12T02:28:03.000Z,28.00
2018-10-12T02:30:30.465Z,29.37
2018-10-12T02:32:57.909Z,27.07
2018-10-12T02:35:25.375Z,25.40
2018-10-12T02:37:52.843Z,27.70
2018-10-12T02:40:20.300Z,30.57
2018-10-12T02:42:47.763Z,31.13
2018-10-12T02:45:15.350Z,24.50
2018-10-12T02:47:42.892Z,25.87
2018-10-12T02:50:10.620Z,23.37
2018-10-12T02:52:38.172Z,24.97
2018-10-12T02:55:05.692Z,26.93
2018-10-12T02:57:33.143Z,25.57
2018-10-12T03:00:00.595Z,29.53
2018-10-12T03:02:28.053Z,27.23
2018-10-12T03:04:55.508Z,31.67
2018-10-12T03:07:22.961Z,24.30
2018-10-12T03:09:50.573Z,30.00
2018-10-12T03:12:17.998Z,24.80
2018-10-12T03:14:45.641Z,24.60
2018-10-12T03:17:13.076Z,29.43
2018-10-12T03:19:40.571Z,36.17
2018-10-12T03:22:08.005Z,27.50
2018-10-12T03:24:36.154Z,26.73
2018-10-12T03:27:04.153Z,27.93
2018-10-12T03:29:32.224Z,29.67
2018-10-12T03:32:00.801Z,25.53
2018-10-12T03:34:28.922Z,23.93
2018-10-12T03:36:57.068Z,26.73
2018-10-12T03:39:24.548Z,34.07
2018-10-12T03:41:52.048Z,25.97
2018-10-12T03:44:19.597Z,24.37
2018-10-12T03:46:48.003Z,24.63
2018-10-12T03:49:15.644Z,20.70
2018-10-12T03:51:43.229Z,25.17
2018-10-12T03:54:11.239Z,28.13
2018-10-12T03:56:38.683Z,28.30
2018-10-12T03:59:06.197Z,21.87
2018-10-12T04:01:33.643Z,22.70
2018-10-12T04:04:01.236Z,25.83
2018-10-12T04:06:28.770Z,26.43
2018-10-12T04:08:56.308Z,25.80
2018-10-12T04:11:23.853Z,27.80
2018-10-12T04:13:51.311Z,26.87
2018-10-12T04:16:18.772Z,25.63
2018-10-12T04:18:46.212Z,22.97
2018-10-12T04:21:13.695Z,23.13
2018-10-12T04:23:41.204Z,22.80
2018-10-12T04:26:08.918Z,23.63
2018-10-12T04:28:36.383Z,21.83
2018-10-12T04:31:03.872Z,29.00
2018-10-12T04:33:31.467Z,29.03
2018-10-12T04:35:58.959Z,27.93
2018-10-12T04:38:28.822Z,26.77
2018-10-12T04:41:05.443Z,24.47
2018-10-12T04:43:33.314Z,28.53
2018-10-12T04:46:02.636Z,27.43
2018-10-12T04:48:30.323Z,26.27
2018-10-12T04:50:58.280Z,26.47
2018-10-12T04:53:25.791Z,29.27
2018-10-12T04:55:53.711Z,30.10
2018-10-12T04:58:21.227Z,21.97
2018-10-12T05:00:48.762Z,21.70
2018-10-12T05:03:16.231Z,22.70
2018-10-12T05:05:43.741Z,22.87
2018-10-12T05:08:11.487Z,23.83
2018-10-12T05:10:38.971Z,24.07
2018-10-12T05:13:06.789Z,26.43
2018-10-12T05:15:34.290Z,22.07
2018-10-12T05:18:01.796Z,27.47
2018-10-12T05:20:29.291Z,23.47
2018-10-12T05:22:56.837Z,21.53
2018-10-12T05:25:24.289Z,21.83
2018-10-12T05:27:51.761Z,25.50
2018-10-12T05:30:19.284Z,21.53
2018-10-12T05:32:46.844Z,20.67
2018-10-12T05:35:14.352Z,27.03
2018-10-12T05:37:42.324Z,25.60
2018-10-12T05:40:09.800Z,24.93
2018-10-12T05:42:37.255Z,23.57
2018-10-12T05:45:04.792Z,22.93
2018-10-12T05:47:32.255Z,22.93
2018-10-12T05:50:07.060Z,22.67
2018-10-12T05:52:34.643Z,26.73
2018-10-12T05:55:02.639Z,22.80
2018-10-12T05:57:31.447Z,24.03
2018-10-12T05:59:59.064Z,21.67
2018-10-12T06:02:26.612Z,24.87
2018-10-12T06:04:54.075Z,28.50
2018-10-12T06:07:21.680Z,24.13
2018-10-12T06:09:49.524Z,21.27
2018-10-12T06:12:17.068Z,23.00
2018-10-12T06:14:44.623Z,27.20
2018-10-12T06:17:12.201Z,25.70
2018-10-12T06:19:39.721Z,25.00
2018-10-12T06:22:07.892Z,31.10
2018-10-12T06:24:35.583Z,35.30
2018-10-12T06:27:04.055Z,30.63
2018-10-12T06:29:31.593Z,34.13
2018-10-12T06:31:59.264Z,32.37
2018-10-12T06:34:26.831Z,30.27
2018-10-12T06:36:54.488Z,29.03
2018-10-12T06:39:21.959Z,29.93
2018-10-12T06:41:49.734Z,35.07
2018-10-12T06:44:17.231Z,35.90
2018-10-12T06:46:44.895Z,31.67
2018-10-12T06:49:12.592Z,36.30
2018-10-12T06:51:40.116Z,29.80
2018-10-12T06:54:08.248Z,32.90
2018-10-12T06:56:35.777Z,31.37
2018-10-12T06:59:03.303Z,31.60
2018-10-12T07:01:30.823Z,32.30
2018-10-12T07:03:58.460Z,34.93
2018-10-12T07:06:26.030Z,39.80
2018-10-12T07:08:53.877Z,39.53
2018-10-12T07:11:21.424Z,39.73
2018-10-12T07:13:49.455Z,35.70
2018-10-12T07:16:17.925Z,33.87
2018-10-12T07:18:45.598Z,28.30
2018-10-12T07:21:13.088Z,28.30
2018-10-12T07:23:40.655Z,29.10
2018-10-12T07:26:09.760Z,29.70
2018-10-12T07:28:38.548Z,33.23
2018-10-12T07:31:06.817Z,36.10
2018-10-12T07:33:34.375Z,34.10
2018-10-12T07:36:01.910Z,33.43
2018-10-12T07:38:29.399Z,31.33
2018-10-12T07:40:56.873Z,42.67
2018-10-12T07:43:26.132Z,42.23
2018-10-12T07:45:54.257Z,40.80
2018-10-12T07:48:22.868Z,46.57
2018-10-12T07:50:50.560Z,48.73
2018-10-12T07:53:18.288Z,43.87
2018-10-12T07:55:45.865Z,46.43
2018-10-12T07:58:13.426Z,48.50
2018-10-12T08:00:40.985Z,43.27
2018-10-12T08:03:08.649Z,42.50
2018-10-12T08:05:36.455Z,49.83
2018-10-12T08:08:04.108Z,47.97
2018-10-12T08:10:32.328Z,43.80
2018-10-12T08:12:59.896Z,44.57
2018-10-12T08:15:27.408Z,46.20
2018-10-12T08:17:55.076Z,44.27
2018-10-12T08:20:22.726Z,46.30
2018-10-12T08:22:50.250Z,48.33
2018-10-12T08:25:17.786Z,41.97
2018-10-12T08:27:46.635Z,44.73
2018-10-12T08:30:14.344Z,40.27
2018-10-12T08:32:42.093Z,35.83
2018-10-12T08:35:09.751Z,44.33
2018-10-12T08:37:37.511Z,36.37
2018-10-12T08:40:06.313Z,46.17
2018-10-12T08:42:33.765Z,39.95
2018-10-12T08:45:01.420Z,35.03
2018-10-12T08:47:28.965Z,37.78
2018-10-12T08:49:56.405Z,41.70
2018-10-12T08:52:23.863Z,43.65
2018-10-12T08:54:51.473Z,31.23
2018-10-12T08:57:19.115Z,31.90
2018-10-12T08:59:46.657Z,37.03
2018-10-12T09:02:14.127Z,33.67
2018-10-12T09:04:41.569Z,34.80
2018-10-12T09:07:09.088Z,38.25
2018-10-12T09:09:36.652Z,36.77
2018-10-12T09:12:04.135Z,29.30
2018-10-12T09:14:31.607Z,29.82
2018-10-12T09:16:59.461Z,31.87
2018-10-12T09:19:26.978Z,35.05
2018-10-12T09:21:54.564Z,27.45
2018-10-12T09:24:21.976Z,31.82
2018-10-12T09:26:49.520Z,27.05
2018-10-12T09:29:16.967Z,30.92
2018-10-12T09:31:44.464Z,30.57
2018-10-12T09:34:11.997Z,27.17
2018-10-12T09:36:39.565Z,34.38
2018-10-12T09:39:07.381Z,29.77
2018-10-12T09:41:34.895Z,24.92
2018-10-12T09:44:06.487Z,24.95
2018-10-12T09:46:33.931Z,31.80
2018-10-12T09:49:02.393Z,27.82
2018-10-12T09:51:29.823Z,28.35
2018-10-12T09:53:57.271Z,25.72
2018-10-12T09:56:24.772Z,24.90
2018-10-12T09:58:52.264Z,22.27
2018-10-12T10:01:25.352Z,23.15
2018-10-12T10:03:58.839Z,18.77
2018-10-12T10:06:26.328Z,19.98
2018-10-12T10:08:53.883Z,20.35
2018-10-12T10:11:21.346Z,19.02
2018-10-12T10:13:48.857Z,18.92
2018-10-12T10:16:16.309Z,17.02
2018-10-12T10:18:43.777Z,17.25
2018-10-12T10:21:11.343Z,21.20
2018-10-12T10:23:38.838Z,17.12
2018-10-12T10:26:06.458Z,21.33
2018-10-12T10:28:34.140Z,14.23
2018-10-12T10:31:02.669Z,19.90
2018-10-12T10:33:30.541Z,20.17
2018-10-12T10:35:58.019Z,21.57
2018-10-12T10:38:25.547Z,12.98
2018-10-12T10:40:53.067Z,14.05
2018-10-12T10:43:20.505Z,13.45
2018-10-12T10:45:48.016Z,13.30
2018-10-12T10:48:15.496Z,15.78
2018-10-12T10:50:43.065Z,11.50
2018-10-12T10:53:10.583Z,17.12
2018-10-12T10:55:38.031Z,14.10
2018-10-12T10:58:05.803Z,11.20
2018-10-12T11:00:33.466Z,14.23
2018-10-12T11:03:01.019Z,9.80
2018-10-12T11:05:28.874Z,9.20
2018-10-12T11:07:56.345Z,13.50
2018-10-12T11:10:23.961Z,8.55
2018-10-12T11:12:51.490Z,7.40
2018-10-12T11:15:18.863Z,8.43
2018-10-12T11:17:46.363Z,18.20
2018-10-12T11:20:13.845Z,9.68
2018-10-12T11:22:41.377Z,8.28
2018-10-12T11:25:08.848Z,8.68
2018-10-12T11:27:36.335Z,10.75
2018-10-12T11:30:04.020Z,9.73
2018-10-12T11:32:31.526Z,12.53
2018-10-12T11:34:59.049Z,11.40
2018-10-12T11:37:26.537Z,7.72
2018-10-12T11:39:54.020Z,3.87
2018-10-12T11:42:21.511Z,7.12
2018-10-12T11:44:49.171Z,10.32
2018-10-12T11:47:16.664Z,5.53
2018-10-12T11:49:44.140Z,4.97
2018-10-12T11:52:11.660Z,4.47
2018-10-12T11:54:39.099Z,7.83
2018-10-12T11:57:06.593Z,5.47
2018-10-12T11:59:34.051Z,5.45
2018-10-12T12:02:01.623Z,10.03
2018-10-12T12:04:29.164Z,7.65
2018-10-12T12:06:56.705Z,9.13
2018-10-12T12:09:24.251Z,5.03
2018-10-12T12:11:51.713Z,8.98
2018-10-12T12:14:19.334Z,3.27
2018-10-12T12:16:46.937Z,5.60
2018-10-12T12:19:14.498Z,5.80
2018-10-12T12:21:42.068Z,4.40
2018-10-12T12:24:09.558Z,5.42
2018-10-12T12:26:37.095Z,6.42
2018-10-12T12:29:04.667Z,5.20
2018-10-12T12:31:32.243Z,1.67
2018-10-12T12:34:00.254Z,4.15
2018-10-12T12:36:27.881Z,3.45
2018-10-12T12:38:56.186Z,12.82
2018-10-12T12:41:23.860Z,5.40
2018-10-12T12:43:51.423Z,2.08
2018-10-12T12:46:18.921Z,5.30
2018-10-12T12:48:46.735Z,4.25
2018-10-12T12:51:14.127Z,2.50
2018-10-12T12:53:42.372Z,2.47
2018-10-12T12:56:11.235Z,4.83
2018-10-12T12:58:38.860Z,6.47
2018-10-12T13:01:06.528Z,7.17
2018-10-12T13:03:34.081Z,3.20
2018-10-12T13:06:02.363Z,4.20
2018-10-12T13:08:29.948Z,6.37
2018-10-12T13:10:57.502Z,2.00
2018-10-12T13:13:25.071Z,7.00
2018-10-12T13:15:53.130Z,5.08
2018-10-12T13:18:20.684Z,6.10
2018-10-12T13:20:48.410Z,3.72
2018-10-12T13:23:16.034Z,4.85
2018-10-12T13:25:43.748Z,4.85
2018-10-12T13:28:11.300Z,9.68
2018-10-12T13:30:38.923Z,7.15
2018-10-12T13:33:06.583Z,2.80
2018-10-12T13:35:34.184Z,2.67
2018-10-12T13:38:01.759Z,5.70
2018-10-12T13:40:29.423Z,5.83
2018-10-12T13:42:58.267Z,4.95
2018-10-12T13:45:25.792Z,6.87
2018-10-12T13:47:55.797Z,4.22
2018-10-12T13:50:24.121Z,8.93
2018-10-12T13:52:51.749Z,5.75
2018-10-12T13:55:19.508Z,4.55
2018-10-12T13:57:49.126Z,2.15
2018-10-12T14:00:16.806Z,1.90
2018-10-12T14:02:44.647Z,7.62
2018-10-12T14:05:12.808Z,2.77
2018-10-12T14:07:40.351Z,5.45
2018-10-12T14:10:08.901Z,4.35
2018-10-12T14:12:36.425Z,3.35
2018-10-12T14:15:05.193Z,5.85
2018-10-12T14:17:32.743Z,5.30
2018-10-12T14:20:00.630Z,6.15
2018-10-12T14:22:28.604Z,6.62
2018-10-12T14:25:08.546Z,3.33
2018-10-12T14:27:36.445Z,1.62
2018-10-12T14:30:05.373Z,3.95
2018-10-12T14:32:32.920Z,6.60
2018-10-12T14:35:00.615Z,4.75
2018-10-12T14:37:28.164Z,9.28
2018-10-12T14:39:55.716Z,7.37
2018-10-12T14:42:23.236Z,6.50
2018-10-12T14:44:50.872Z,1.20
2018-10-12T14:47:18.347Z,3.42
2018-10-12T14:49:45.885Z,8.10
2018-10-12T14:52:13.363Z,4.33
2018-10-12T14:54:40.845Z,3.72
2018-10-12T14:57:14.005Z,4.35
2018-10-12T14:59:42.145Z,6.72
2018-10-12T15:02:09.713Z,4.92
2018-10-12T15:04:37.191Z,4.35
2018-10-12T15:07:04.781Z,2.25
2018-10-12T15:09:32.405Z,7.10
2018-10-12T15:12:00.056Z,2.58
2018-10-12T15:14:38.725Z,3.00
2018-10-12T15:17:06.188Z,3.92
2018-10-12T15:19:33.733Z,3.33
2018-10-12T15:22:01.269Z,6.42
2018-10-12T15:24:29.291Z,4.03
2018-10-12T15:26:56.823Z,5.55
2018-10-12T15:29:24.309Z,3.05
2018-10-12T15:31:51.877Z,4.90
2018-10-12T15:34:19.452Z,10.72
2018-10-12T15:36:47.116Z,3.12
2018-10-12T15:39:14.707Z,7.42
2018-10-12T15:41:42.206Z,7.00
2018-10-12T15:44:09.844Z,10.00
2018-10-12T15:46:39.487Z,2.20
2018-10-12T15:49:07.356Z,5.40
2018-10-12T15:51:35.204Z,4.28
2018-10-12T15:54:02.820Z,4.47
2018-10-12T15:56:30.431Z,6.22
2018-10-12T15:58:58.015Z,4.20
2018-10-12T16:01:25.507Z,1.72
2018-10-12T16:03:53.076Z,3.90
2018-10-12T16:06:20.689Z,6.78
2018-10-12T16:08:48.811Z,3.08
2018-10-12T16:11:16.327Z,3.50
2018-10-12T16:14:22.828Z,5.87
2018-10-12T16:16:50.419Z,9.43
2018-10-12T16:19:17.956Z,7.35
2018-10-12T16:21:45.556Z,3.87
2018-10-12T16:24:13.708Z,4.20
2018-10-12T16:26:41.232Z,5.15
2018-10-12T16:29:09.941Z,5.97
2018-10-12T16:31:37.504Z,8.28
2018-10-12T16:34:10.821Z,8.15
2018-10-12T16:36:38.493Z,10.43
2018-10-12T16:39:07.366Z,10.72
2018-10-12T16:41:35.257Z,8.45
2018-10-12T16:44:02.988Z,7.58
2018-10-12T16:46:30.669Z,10.75
2018-10-12T16:48:59.347Z,5.05
2018-10-12T16:51:29.279Z,9.10
2018-10-12T16:53:56.951Z,11.60
2018-10-12T16:56:24.710Z,4.25
2018-10-12T16:58:52.303Z,7.28
2018-10-12T17:01:19.814Z,7.45
2018-10-12T17:03:47.568Z,11.35
2018-10-12T17:06:15.197Z,6.65
2018-10-12T17:08:42.887Z,4.33
2018-10-12T17:11:10.383Z,8.78
2018-10-12T17:13:37.996Z,7.53
2018-10-12T17:16:05.949Z,5.55
2018-10-12T17:18:33.698Z,12.90
2018-10-12T17:21:01.308Z,12.03
2018-10-12T17:23:28.917Z,6.95
2018-10-12T17:26:00.429Z,13.65
2018-10-12T17:28:28.056Z,7.47
2018-10-12T17:30:55.579Z,9.83
2018-10-12T17:33:23.057Z,16.73
2018-10-12T17:35:50.563Z,8.60
2018-10-12T17:38:18.003Z,10.23
2018-10-12T17:40:45.594Z,9.38
2018-10-12T17:43:13.052Z,11.12
2018-10-12T17:45:40.544Z,10.72
2018-10-12T17:48:08.121Z,7.80
2018-10-12T17:50:35.579Z,8.45
2018-10-12T17:53:03.897Z,5.35
2018-10-12T17:55:31.392Z,7.47
2018-10-12T17:57:58.870Z,5.78
2018-10-12T18:00:26.757Z,7.20
2018-10-12T18:02:54.447Z,11.48
2018-10-12T18:05:21.895Z,8.75
2018-10-12T18:07:49.364Z,9.00
2018-10-12T18:10:16.808Z,4.75
2018-10-12T18:12:44.319Z,8.38
2018-10-12T18:15:12.433Z,5.28
2018-10-12T18:17:40.328Z,6.15
2018-10-12T18:20:08.219Z,6.55
2018-10-12T18:22:35.699Z,8.45
2018-10-12T18:25:03.341Z,12.68
2018-10-12T18:27:30.917Z,9.95
2018-10-12T18:29:58.856Z,5.30
2018-10-12T18:32:26.420Z,14.58
2018-10-12T18:34:54.608Z,13.20
2018-10-12T18:37:22.095Z,15.90
2018-10-12T18:39:49.592Z,15.10
2018-10-12T18:42:17.147Z,17.55
2018-10-12T18:44:44.756Z,25.17
2018-10-12T18:47:12.325Z,18.55
2018-10-12T18:49:42.036Z,14.00
2018-10-12T18:52:09.504Z,16.57
2018-10-12T18:54:37.223Z,20.70
2018-10-12T18:57:04.735Z,7.83
2018-10-12T18:59:32.545Z,10.28
2018-10-12T19:02:01.468Z,12.23
2018-10-12T19:04:29.827Z,15.20
2018-10-12T19:07:00.005Z,11.80
2018-10-12T19:09:27.581Z,10.15
2018-10-12T19:11:55.140Z,11.25
2018-10-12T19:14:22.649Z,10.18
2018-10-12T19:16:50.101Z,10.18
2018-10-12T19:19:17.587Z,10.55
2018-10-12T19:21:45.084Z,6.83
2018-10-12T19:24:12.642Z,6.55
2018-10-12T19:26:40.114Z,11.68
2018-10-12T19:29:07.603Z,10.78
2018-10-12T19:31:35.356Z,9.78
2018-10-12T19:34:03.418Z,6.95
2018-10-12T19:36:30.920Z,7.78
2018-10-12T19:38:58.495Z,10.90
2018-10-12T19:41:25.960Z,12.93
2018-10-12T19:43:53.631Z,8.53
2018-10-12T19:46:21.224Z,12.23
2018-10-12T19:48:48.776Z,7.08
2018-10-12T19:51:16.580Z,13.40
2018-10-12T19:53:44.065Z,13.83
2018-10-12T19:56:11.532Z,14.75
2018-10-12T19:58:39.621Z,6.20
2018-10-12T20:01:07.135Z,15.08
2018-10-12T20:03:34.655Z,8.95
2018-10-12T20:06:02.262Z,11.78
2018-10-12T20:08:33.770Z,10.43
2018-10-12T20:11:01.247Z,7.67
2018-10-12T20:13:28.734Z,14.18
2018-10-12T20:15:56.290Z,6.87
2018-10-12T20:18:23.980Z,8.28
2018-10-12T20:20:51.656Z,14.05
2018-10-12T20:23:20.039Z,8.13
2018-10-12T20:25:48.005Z,7.05
2018-10-12T20:28:15.756Z,9.70
2018-10-12T20:30:43.590Z,9.78
2018-10-12T20:33:11.248Z,10.58
2018-10-12T20:35:38.934Z,8.10
2018-10-12T20:38:06.907Z,9.65
2018-10-12T20:40:34.574Z,5.42
2018-10-12T20:43:03.030Z,7.53
2018-10-12T20:45:31.600Z,6.35
2018-10-12T20:47:59.298Z,7.87
2018-10-12T20:50:26.779Z,7.85
2018-10-12T20:52:54.219Z,6.92
2018-10-12T20:55:21.727Z,6.45
2018-10-12T20:57:50.169Z,12.85
2018-10-12T21:00:18.401Z,9.65
2018-10-12T21:02:46.159Z,6.78
2018-10-12T21:05:13.612Z,5.97
2018-10-12T21:07:41.668Z,6.22
2018-10-12T21:10:10.697Z,6.55
2018-10-12T21:12:38.669Z,6.95
2018-10-12T21:15:06.588Z,13.18
2018-10-12T21:17:34.148Z,9.10
2018-10-12T21:20:01.758Z,4.87
2018-10-12T21:22:29.271Z,6.90
2018-10-12T21:24:56.837Z,7.83
2018-10-12T21:27:24.327Z,7.08
2018-10-12T21:29:51.772Z,5.50
2018-10-12T21:32:19.729Z,6.80
2018-10-12T21:34:47.221Z,9.60
2018-10-12T21:37:14.698Z,6.70
2018-10-12T21:39:42.327Z,6.53
2018-10-12T21:42:09.768Z,7.58
2018-10-12T21:44:37.205Z,10.03
2018-10-12T21:47:04.732Z,8.75
2018-10-12T21:49:32.216Z,7.25
2018-10-12T21:51:59.687Z,9.55
2018-10-12T21:54:27.332Z,7.00
2018-10-12T21:56:58.147Z,9.93
2018-10-12T21:59:25.818Z,9.05
2018-10-12T22:01:53.398Z,7.17
2018-10-12T22:04:20.852Z,15.40
2018-10-12T22:06:48.486Z,9.65
2018-10-12T22:09:16.113Z,10.98
2018-10-12T22:11:43.621Z,7.78
2018-10-12T22:14:11.480Z,8.10
2018-10-12T22:16:39.003Z,7.00
2018-10-12T22:19:07.020Z,6.47
2018-10-12T22:21:34.605Z,10.38
2018-10-12T22:24:02.151Z,7.25
2018-10-12T22:26:30.021Z,9.45
2018-10-12T22:28:57.768Z,7.55
2018-10-12T22:31:25.339Z,12.60
2018-10-12T22:33:52.816Z,8.90
2018-10-12T22:36:20.420Z,6.78
2018-10-12T22:38:48.156Z,8.57
2018-10-12T22:41:15.692Z,4.83
2018-10-12T22:43:43.259Z,12.33
2018-10-12T22:46:10.804Z,6.67
2018-10-12T22:48:38.249Z,6.67
2018-10-12T22:51:05.761Z,6.00
2018-10-12T22:53:33.252Z,7.20
2018-10-12T22:56:00.759Z,8.93
2018-10-12T22:58:28.263Z,7.53
2018-10-12T23:00:55.759Z,7.67
2018-10-12T23:03:23.368Z,10.93
2018-10-12T23:05:50.856Z,9.70
2018-10-12T23:08:18.491Z,8.38
2018-10-12T23:10:45.978Z,8.75
2018-10-12T23:13:13.424Z,10.30
2018-10-12T23:15:40.896Z,11.73
2018-10-12T23:18:08.436Z,7.27
2018-10-12T23:20:35.891Z,10.20
2018-10-12T23:23:03.391Z,10.45
2018-10-12T23:25:30.923Z,5.45
2018-10-12T23:27:58.381Z,9.75
2018-10-12T23:30:25.829Z,5.42
2018-10-12T23:32:57.840Z,7.80
2018-10-12T23:35:25.315Z,12.03
2018-10-12T23:37:52.784Z,9.10
2018-10-12T23:40:20.263Z,10.17
2018-10-12T23:42:47.761Z,6.30
2018-10-12T23:45:15.203Z,7.07
2018-10-12T23:47:42.692Z,18.23
2018-10-12T23:50:10.141Z,7.33
2018-10-12T23:52:37.593Z,6.67
2018-10-12T23:55:05.259Z,5.77
2018-10-12T23:57:32.739Z,7.47
